Time;durP1;ratioP1;P1;durP2;ratioP2;P2;SDS_P1;SDS_P2;PMS_P1;PMS_P2;Temp;Humidity;BMP_temperature;BMP_pressure;BME280_temperature;BME280_humidity;BME280_pressure;Samples;Min_cycle;Max_cycle;Signal;HPM_P1;HPM_P2
2022/04/10 00:01:10;;;;;;;5.10;2.47;;;;;;;7.35;45.41;95307.22;5055719;28;20020;-64
2022/04/10 00:03:36;;;;;;;10.90;3.72;;;;;;;7.66;45.23;95341.34;5073746;28;20029;-64
2022/04/10 00:06:01;;;;;;;4.22;2.80;;;;;;;7.85;45.13;95341.44;5055942;28;20031;-64
2022/04/10 00:08:26;;;;;;;4.85;2.90;;;;;;;7.13;44.57;95275.94;5073866;28;20154;-65
2022/04/10 00:10:52;;;;;;;3.63;2.70;;;;;;;6.30;47.37;95282.13;5073234;28;20084;-65
2022/04/10 00:13:17;;;;;;;5.25;3.15;;;;;;;5.86;48.03;95268.81;5073761;28;20052;-64
2022/04/10 00:15:43;;;;;;;6.05;3.30;;;;;;;5.82;49.31;95331.13;5073614;28;20098;-64
2022/04/10 00:18:09;;;;;;;5.03;3.00;;;;;;;5.36;50.52;95334.66;5073659;28;20029;-64
2022/04/10 00:20:34;;;;;;;4.93;3.20;;;;;;;5.67;51.35;95385.53;5072876;28;20037;-64
2022/04/10 00:22:59;;;;;;;5.18;3.10;;;;;;;5.39;51.05;95365.00;5073621;28;20017;-64
2022/04/10 00:25:25;;;;;;;8.15;3.50;;;;;;;4.92;51.86;95308.06;5073366;28;20075;-64
2022/04/10 00:27:50;;;;;;;5.40;3.20;;;;;;;4.31;53.60;95340.38;5072625;28;20031;-64
2022/04/10 00:30:17;;;;;;;5.43;3.60;;;;;;;4.95;53.45;95379.47;5073051;28;20035;-65
2022/04/10 00:32:43;;;;;;;7.75;3.13;;;;;;;5.15;52.36;95386.59;5073316;28;20469;-63
2022/04/10 00:35:10;;;;;;;7.20;3.85;;;;;;;5.40;51.89;95359.44;5073336;28;20032;-65
2022/04/10 00:37:37;;;;;;;6.28;3.60;;;;;;;5.31;51.50;95336.50;5073192;28;20378;-64
2022/04/10 00:40:04;;;;;;;8.00;3.67;;;;;;;4.76;52.79;95338.06;5072953;28;20409;-64
2022/04/10 00:42:39;;;;;;;5.55;3.42;;;;;;;4.56;53.11;95305.38;5072946;28;20081;-64
2022/04/10 00:45:05;;;;;;;8.35;3.40;;;;;;;4.85;53.50;95371.56;5073108;28;20032;-64
2022/04/10 00:47:34;;;;;;;5.20;3.58;;;;;;;4.87;53.67;95379.22;5073097;28;20035;-63
2022/04/10 00:50:03;;;;;;;5.38;3.80;;;;;;;5.32;52.69;95380.28;5072899;28;20107;-65
2022/04/10 00:52:30;;;;;;;6.85;4.25;;;;;;;4.45;53.51;95306.41;5072727;28;20016;-64
2022/04/10 00:54:56;;;;;;;4.78;3.90;;;;;;;4.82;53.90;95366.03;5073125;28;20025;-63
2022/04/10 00:57:23;;;;;;;7.55;4.40;;;;;;;4.79;53.34;95329.66;5073332;28;20027;-64
2022/04/10 00:59:48;;;;;;;6.07;4.30;;;;;;;4.76;54.14;95367.06;5072929;28;20085;-65
2022/04/10 01:02:13;;;;;;;6.53;3.90;;;;;;;4.60;53.46;95319.59;5054660;28;20024;-64
2022/04/10 01:04:40;;;;;;;5.75;3.60;;;;;;;5.06;53.33;95334.66;5072984;28;20111;-64
2022/04/10 01:07:06;;;;;;;5.85;3.85;;;;;;;4.78;54.01;95336.75;5073100;28;20035;-63
2022/04/10 01:09:32;;;;;;;5.05;3.60;;;;;;;5.47;52.52;95373.13;5072521;28;20030;-64
2022/04/10 01:11:57;;;;;;;5.75;3.80;;;;;;;5.15;53.08;95338.34;5072113;28;20024;-64
2022/04/10 01:14:23;;;;;;;5.20;3.42;;;;;;;4.64;55.15;95365.44;5072554;28;20202;-64
2022/04/10 01:16:48;;;;;;;8.18;3.83;;;;;;;4.31;54.46;95286.91;5072403;28;20521;-64
2022/04/10 01:19:16;;;;;;;5.60;3.72;;;;;;;4.69;53.88;95296.97;5072406;28;20029;-64
2022/04/10 01:21:44;;;;;;;4.82;3.72;;;;;;;4.98;54.22;95361.56;5072064;28;20060;-64
2022/04/10 01:24:11;;;;;;;5.00;4.18;;;;;;;4.81;54.37;95344.16;5072186;28;20028;-63
2022/04/10 01:26:36;;;;;;;5.53;4.10;;;;;;;5.17;54.59;95397.69;5054778;28;20030;-64
2022/04/10 01:29:04;;;;;;;7.25;4.30;;;;;;;4.59;56.01;95375.19;5072232;28;20029;-63
2022/04/10 01:31:32;;;;;;;5.78;3.55;;;;;;;4.35;56.54;95345.88;5071871;28;20035;-64
2022/04/10 01:33:59;;;;;;;4.28;3.88;;;;;;;4.86;54.12;95295.91;5072077;28;20029;-65
2022/04/10 01:36:27;;;;;;;5.00;4.15;;;;;;;4.88;54.74;95352.59;5054047;28;20031;-64
2022/04/10 01:38:55;;;;;;;4.72;4.07;;;;;;;4.99;55.38;95371.06;5053203;28;20032;-63
2022/04/10 01:41:21;;;;;;;6.55;4.13;;;;;;;5.14;54.46;95368.41;5071602;28;20021;-65
2022/04/10 01:43:48;;;;;;;4.13;3.72;;;;;;;4.51;56.26;95357.28;5071914;28;20052;-64
2022/04/10 01:46:14;;;;;;;5.13;4.13;;;;;;;5.10;55.65;95385.81;5071759;28;20031;-64
2022/04/10 01:48:40;;;;;;;5.82;4.25;;;;;;;4.70;56.67;95393.38;5071968;28;20039;-64
2022/04/10 01:51:09;;;;;;;6.68;4.53;;;;;;;4.37;57.34;95343.81;5053449;28;20020;-64
2022/04/10 01:53:35;;;;;;;4.57;3.83;;;;;;;4.68;56.83;95377.06;5071678;28;20161;-63
2022/04/10 01:56:05;;;;;;;7.53;4.10;;;;;;;4.49;56.46;95319.84;5071798;28;20452;-63
2022/04/10 01:58:33;;;;;;;8.30;3.67;;;;;;;4.64;55.81;95289.06;5053512;28;20182;-64
2022/04/10 02:01:02;;;;;;;5.93;3.47;;;;;;;5.07;55.35;95357.34;5071427;28;20025;-62
2022/04/10 02:03:27;;;;;;;5.43;3.70;;;;;;;5.20;55.81;95370.00;5053883;28;20381;-63
2022/04/10 02:05:52;;;;;;;7.00;3.70;;;;;;;5.02;56.74;95367.91;5071609;28;20031;-63
2022/04/10 02:08:18;;;;;;;9.57;3.63;;;;;;;4.96;56.00;95332.81;5071613;28;20447;-63
2022/04/10 02:10:43;;;;;;;4.25;3.40;;;;;;;4.68;56.18;95310.41;5070892;28;20032;-63
2022/04/10 02:13:08;;;;;;;4.95;3.40;;;;;;;4.59;57.66;95354.13;5053503;28;20025;-63
2022/04/10 02:15:37;;;;;;;6.70;3.88;;;;;;;4.81;56.28;95294.09;5071397;28;20108;-64
2022/04/10 02:18:04;;;;;;;7.75;4.00;;;;;;;5.30;56.90;95387.66;5071366;28;20032;-64
2022/04/10 02:20:29;;;;;;;9.05;3.83;;;;;;;4.77;56.93;95321.22;5070605;28;20035;-64
2022/04/10 02:22:54;;;;;;;5.18;3.92;;;;;;;5.13;57.24;95358.94;5071005;28;20495;-64
2022/04/10 02:25:20;;;;;;;3.95;3.60;;;;;;;5.56;56.50;95362.84;5070356;28;20074;-64
2022/04/10 02:27:45;;;;;;;4.03;3.63;;;;;;;5.47;55.79;95365.22;5070814;28;20029;-64
2022/04/10 02:30:12;;;;;;;4.95;3.55;;;;;;;5.28;58.27;95409.03;5070831;28;20473;-64
2022/04/10 02:32:38;;;;;;;5.63;3.42;;;;;;;5.05;59.55;95418.25;5071157;28;20111;-64
2022/04/10 02:35:04;;;;;;;4.68;3.25;;;;;;;5.35;58.24;95361.28;5071184;28;20021;-64
2022/04/10 02:37:29;;;;;;;3.95;3.55;;;;;;;5.62;58.96;95424.31;5070993;28;20094;-64
2022/04/10 02:39:55;;;;;;;5.93;3.78;;;;;;;5.73;58.92;95426.72;5071168;28;20089;-64
2022/04/10 02:42:20;;;;;;;5.80;3.70;;;;;;;6.29;56.34;95417.09;5070724;28;20035;-64
2022/04/10 02:44:45;;;;;;;3.75;3.00;;;;;;;6.26;55.95;95376.16;5071130;28;20115;-63
2022/04/10 02:47:11;;;;;;;6.20;3.53;;;;;;;7.11;54.13;95420.91;5071062;28;20472;-63
2022/04/10 02:49:36;;;;;;;4.07;3.00;;;;;;;6.37;53.76;95322.22;5071186;28;20111;-64
2022/04/10 02:52:01;;;;;;;4.85;2.90;;;;;;;7.12;52.83;95332.56;5070507;28;20059;-63
2022/04/10 02:54:27;;;;;;;4.03;2.75;;;;;;;7.58;52.45;95393.06;5070975;28;20020;-64
2022/04/10 02:56:52;;;;;;;4.95;2.40;;;;;;;6.99;53.98;95420.47;5070909;28;20050;-63
2022/04/10 02:59:18;;;;;;;3.70;2.50;;;;;;;6.91;54.82;95397.22;5052858;28;20497;-63
2022/04/10 03:01:43;;;;;;;5.22;2.80;;;;;;;6.47;54.44;95334.59;5070835;28;20070;-63
2022/04/10 03:04:08;;;;;;;5.53;2.70;;;;;;;5.91;56.39;95316.31;5052853;28;20017;-65
2022/04/10 03:06:34;;;;;;;4.63;2.63;;;;;;;5.90;56.97;95394.72;5070887;28;20021;-63
2022/04/10 03:08:59;;;;;;;2.90;2.60;;;;;;;5.91;57.03;95412.19;5070656;28;20033;-64
2022/04/10 03:11:25;;;;;;;4.35;2.75;;;;;;;5.43;58.89;95406.41;5052287;28;20048;-64
2022/04/10 03:13:51;;;;;;;4.68;2.40;;;;;;;5.94;58.08;95422.22;5070797;28;20078;-65
2022/04/10 03:16:16;;;;;;;3.88;2.75;;;;;;;5.88;58.65;95433.00;5070696;28;20024;-64
2022/04/10 03:18:42;;;;;;;3.88;2.92;;;;;;;6.24;57.80;95421.34;5070734;28;20024;-64
2022/04/10 03:21:08;;;;;;;6.25;3.15;;;;;;;4.92;59.27;95355.50;5070102;28;20082;-64
2022/04/10 03:23:33;;;;;;;5.95;3.38;;;;;;;5.53;59.16;95342.28;5070547;28;20025;-65
2022/04/10 03:25:59;;;;;;;3.95;3.45;;;;;;;5.81;58.29;95363.88;5052683;28;20039;-65
2022/04/10 03:28:24;;;;;;;6.40;3.88;;;;;;;5.83;58.53;95388.91;5052514;28;20031;-64
2022/04/10 03:30:50;;;;;;;5.20;3.75;;;;;;;6.04;57.14;95362.50;5070008;28;20027;-64
2022/04/10 03:33:15;;;;;;;7.65;4.05;;;;;;;6.42;57.46;95400.66;5070389;28;20024;-64
2022/04/10 03:35:40;;;;;;;4.57;3.55;;;;;;;6.18;57.80;95408.41;5070577;28;20028;-64
2022/04/10 03:38:06;;;;;;;6.70;3.80;;;;;;;5.74;57.95;95362.31;5070376;28;20392;-65
2022/04/10 03:40:31;;;;;;;4.22;3.80;;;;;;;6.29;57.95;95401.25;5070474;28;20596;-64
2022/04/10 03:42:56;;;;;;;5.30;4.20;;;;;;;6.55;56.96;95362.28;5070532;28;20024;-64
2022/04/10 03:45:22;;;;;;;7.35;4.28;;;;;;;6.28;57.14;95410.22;5070467;28;20393;-64
2022/04/10 03:47:47;;;;;;;4.63;4.18;;;;;;;6.08;58.55;95417.16;5070501;28;20020;-64
2022/04/10 03:50:13;;;;;;;5.43;4.47;;;;;;;5.96;58.57;95419.31;5069989;28;20058;-64
2022/04/10 03:52:38;;;;;;;5.20;4.63;;;;;;;5.75;59.17;95421.16;5052761;28;20027;-64
2022/04/10 03:55:05;;;;;;;6.00;4.65;;;;;;;6.37;58.14;95445.59;5070565;28;20025;-64
2022/04/10 03:57:30;;;;;;;7.05;4.22;;;;;;;6.08;57.27;95406.59;5070329;28;20090;-64
2022/04/10 03:59:56;;;;;;;6.25;4.50;;;;;;;6.18;58.17;95416.34;5070494;28;20028;-63
2022/04/10 04:02:22;;;;;;;6.38;4.40;;;;;;;5.99;58.58;95440.69;5070597;28;20029;-64
2022/04/10 04:04:51;;;;;;;5.97;5.03;;;;;;;6.08;58.99;95453.34;5073843;28;20035;-64
2022/04/10 04:07:18;;;;;;;8.13;5.03;;;;;;;6.01;58.42;95421.16;5073735;28;20066;-64
2022/04/10 04:09:43;;;;;;;10.15;4.93;;;;;;;5.37;58.77;95378.44;5073645;28;20024;-64
2022/04/10 04:12:09;;;;;;;7.53;4.75;;;;;;;5.57;59.45;95448.88;5073175;28;20028;-65
2022/04/10 04:14:35;;;;;;;6.47;4.68;;;;;;;5.22;60.69;95450.44;5073619;28;20028;-64
2022/04/10 04:17:01;;;;;;;5.22;4.70;;;;;;;5.58;60.09;95450.47;5055587;28;20020;-63
2022/04/10 04:19:26;;;;;;;7.07;5.20;;;;;;;5.22;60.61;95426.72;5055216;28;20029;-63
2022/04/10 04:21:52;;;;;;;5.53;4.80;;;;;;;5.26;60.39;95428.81;5073201;28;20142;-64
2022/04/10 04:24:17;;;;;;;6.15;4.75;;;;;;;5.30;59.82;95406.94;5073549;28;20465;-63
2022/04/10 04:26:42;;;;;;;5.97;4.85;;;;;;;5.84;59.04;95440.69;5073436;28;20028;-64
2022/04/10 04:29:08;;;;;;;6.20;4.85;;;;;;;5.21;60.02;95421.69;5073328;28;20107;-64
2022/04/10 04:31:33;;;;;;;7.15;4.45;;;;;;;5.39;60.24;95452.81;5054962;28;20056;-64
2022/04/10 04:33:58;;;;;;;6.78;4.70;;;;;;;5.18;59.11;95380.03;5055526;28;20496;-63
2022/04/10 04:36:24;;;;;;;7.10;4.72;;;;;;;5.41;59.74;95463.91;5055487;28;20663;-64
2022/04/10 04:38:49;;;;;;;4.63;4.22;;;;;;;6.07;59.32;95476.31;5073074;28;20037;-63
2022/04/10 04:41:14;;;;;;;5.90;4.25;;;;;;;5.21;59.86;95404.00;5072851;28;20585;-64
2022/04/10 04:43:40;;;;;;;7.28;4.40;;;;;;;5.63;59.81;95482.13;5073145;28;20075;-63
2022/04/10 04:46:05;;;;;;;5.80;3.95;;;;;;;6.36;57.40;95451.97;5073093;28;20029;-64
2022/04/10 04:48:30;;;;;;;5.35;4.38;;;;;;;5.55;58.25;95421.16;5073149;28;20024;-63
2022/04/10 04:50:57;;;;;;;5.00;4.50;;;;;;;6.12;58.46;95481.59;5072914;28;20025;-64
2022/04/10 04:53:22;;;;;;;5.78;5.28;;;;;;;5.45;59.75;95411.41;5073155;28;20048;-64
2022/04/10 04:55:47;;;;;;;8.52;5.10;;;;;;;5.87;59.88;95461.25;5054864;28;20113;-64
2022/04/10 04:58:13;;;;;;;5.90;4.80;;;;;;;5.57;60.71;95496.34;5054896;28;20028;-63
2022/04/10 05:00:38;;;;;;;5.80;5.10;;;;;;;4.65;62.23;95438.16;5054401;28;20549;-63
2022/04/10 05:03:04;;;;;;;6.75;5.10;;;;;;;5.37;61.48;95481.31;5072740;28;20040;-63
2022/04/10 05:05:29;;;;;;;6.05;5.45;;;;;;;5.07;60.91;95434.59;5072735;28;20020;-63
2022/04/10 05:07:55;;;;;;;6.28;4.93;;;;;;;4.32;62.37;95406.97;5072644;28;20112;-63
2022/04/10 05:10:20;;;;;;;6.85;5.50;;;;;;;4.71;63.14;95441.63;5072261;28;20051;-63
2022/04/10 05:12:45;;;;;;;5.72;4.35;;;;;;;4.95;62.96;95511.28;5072617;28;20031;-64
2022/04/10 05:15:11;;;;;;;6.53;4.70;;;;;;;5.07;62.22;95478.63;5072536;28;20020;-64
2022/04/10 05:17:36;;;;;;;5.57;4.30;;;;;;;5.93;59.06;95477.91;5072443;28;20103;-64
2022/04/10 05:20:03;;;;;;;6.05;4.82;;;;;;;6.31;58.79;95507.44;5071930;28;20729;-64
2022/04/10 05:22:28;;;;;;;7.03;5.68;;;;;;;6.53;57.31;95488.63;5072246;28;20025;-64
2022/04/10 05:24:54;;;;;;;7.40;4.45;;;;;;;6.60;57.58;95523.47;5072485;28;20392;-64
2022/04/10 05:27:19;;;;;;;5.30;4.47;;;;;;;6.40;58.01;95508.50;5054456;28;20035;-64
2022/04/10 05:29:44;;;;;;;4.82;4.32;;;;;;;5.51;60.15;95513.25;5071938;28;20023;-64
2022/04/10 05:32:13;;;;;;;7.75;4.43;;;;;;;5.69;58.86;95477.66;5071604;28;20461;-64
2022/04/10 05:34:38;;;;;;;4.95;4.45;;;;;;;5.39;60.52;95510.06;5072359;28;20071;-63
2022/04/10 05:37:04;;;;;;;6.65;4.88;;;;;;;6.19;58.90;95524.38;5072115;28;20473;-64
2022/04/10 05:39:29;;;;;;;5.53;4.70;;;;;;;6.05;58.42;95489.00;5071849;28;20039;-64
2022/04/10 05:41:54;;;;;;;5.28;4.53;;;;;;;5.55;60.58;95555.75;5071679;28;20640;-64
2022/04/10 05:44:20;;;;;;;9.52;4.55;;;;;;;6.08;59.79;95551.03;5071931;28;20017;-65
2022/04/10 05:46:45;;;;;;;6.90;4.95;;;;;;;5.50;60.37;95535.41;5071713;28;20021;-65
2022/04/10 05:49:10;;;;;;;5.28;4.65;;;;;;;5.53;60.14;95512.97;5071869;28;20044;-65
2022/04/10 05:51:36;;;;;;;5.40;4.65;;;;;;;6.47;57.88;95524.84;5071803;28;20453;-64
2022/04/10 05:54:01;;;;;;;6.57;4.18;;;;;;;5.62;59.79;95541.22;5053884;28;20642;-65
2022/04/10 05:56:27;;;;;;;6.43;4.25;;;;;;;6.57;57.96;95576.91;5072143;28;20154;-64
2022/04/10 05:58:52;;;;;;;5.18;4.68;;;;;;;6.62;56.76;95568.97;5071427;28;20024;-64
2022/04/10 06:01:18;;;;;;;4.70;4.30;;;;;;;6.88;56.20;95524.72;5071334;28;20024;-64
2022/04/10 06:03:43;;;;;;;6.38;4.50;;;;;;;6.62;56.61;95572.38;5071605;28;20064;-64
2022/04/10 06:06:08;;;;;;;4.63;4.20;;;;;;;5.35;58.90;95504.53;5071484;28;20082;-64
2022/04/10 06:08:34;;;;;;;5.47;4.18;;;;;;;5.60;60.27;95568.94;5071738;28;20117;-64
2022/04/10 06:10:59;;;;;;;5.53;4.45;;;;;;;5.57;60.25;95595.84;5053225;28;20020;-64
2022/04/10 06:13:25;;;;;;;5.50;4.13;;;;;;;5.64;60.31;95588.50;5071832;28;20082;-64
2022/04/10 06:15:51;;;;;;;4.20;3.80;;;;;;;5.08;61.70;95578.56;5071612;28;20683;-64
2022/04/10 06:18:16;;;;;;;6.63;4.25;;;;;;;4.83;60.94;95515.19;5071589;28;20028;-65
2022/04/10 06:20:42;;;;;;;4.68;4.20;;;;;;;5.01;62.35;95588.53;5071202;28;20072;-64
2022/04/10 06:23:07;;;;;;;4.60;3.88;;;;;;;4.94;62.08;95561.63;5071377;28;20024;-64
2022/04/10 06:25:33;;;;;;;4.28;3.75;;;;;;;5.04;62.30;95613.59;5070852;28;20024;-64
2022/04/10 06:27:58;;;;;;;4.97;4.20;;;;;;;3.99;64.71;95531.84;5071184;28;20028;-65
2022/04/10 06:30:23;;;;;;;5.72;4.97;;;;;;;4.56;63.71;95525.88;5070941;28;20060;-65
2022/04/10 06:32:49;;;;;;;5.93;5.30;;;;;;;4.95;65.16;95618.56;5071189;28;20036;-64
2022/04/10 06:35:14;;;;;;;4.60;3.08;;;;;;;4.57;65.81;95598.59;5053238;28;20047;-65
2022/04/10 06:37:40;;;;;;;5.68;4.22;;;;;;;4.95;64.50;95619.34;5071017;28;20033;-64
2022/04/10 06:40:06;;;;;;;6.40;3.90;;;;;;;5.33;62.72;95622.72;5070778;28;20468;-65
2022/04/10 06:42:31;;;;;;;6.22;5.35;;;;;;;5.87;61.54;95608.31;5070912;28;20433;-65
2022/04/10 06:44:57;;;;;;;6.45;5.03;;;;;;;5.65;62.66;95614.59;5071009;28;20055;-64
2022/04/10 06:47:22;;;;;;;9.20;4.40;;;;;;;5.09;63.29;95605.72;5071113;28;20052;-62
2022/04/10 06:49:48;;;;;;;6.07;4.93;;;;;;;5.37;63.48;95615.03;5070926;28;20025;-62
2022/04/10 06:52:13;;;;;;;6.65;4.75;;;;;;;5.84;62.25;95643.16;5071088;28;20121;-62
2022/04/10 06:54:39;;;;;;;5.22;4.82;;;;;;;5.99;60.39;95593.06;5070984;28;20111;-61
2022/04/10 06:57:05;;;;;;;4.47;3.45;;;;;;;5.77;60.50;95626.78;5070972;28;20465;-62
2022/04/10 06:59:30;;;;;;;8.77;4.53;;;;;;;5.56;61.36;95610.09;5070829;28;20674;-62
2022/04/10 07:01:56;;;;;;;5.10;4.63;;;;;;;5.42;62.00;95620.34;5070553;28;20056;-62
2022/04/10 07:04:21;;;;;;;5.72;4.05;;;;;;;5.31;62.09;95630.06;5070770;28;20025;-62
2022/04/10 07:06:47;;;;;;;4.45;4.05;;;;;;;5.68;61.18;95598.25;5052824;28;20385;-61
2022/04/10 07:09:14;;;;;;;6.07;4.28;;;;;;;5.99;59.96;95622.09;5052754;28;20158;-62
2022/04/10 07:11:40;;;;;;;7.53;4.00;;;;;;;5.92;61.19;95634.75;5070003;28;20465;-61
2022/04/10 07:14:06;;;;;;;6.15;4.25;;;;;;;5.96;60.18;95596.22;5070532;28;20029;-61
2022/04/10 07:16:31;;;;;;;6.32;5.00;;;;;;;6.86;58.74;95612.25;5070662;28;20020;-61
2022/04/10 07:18:57;;;;;;;5.47;4.80;;;;;;;6.36;58.47;95624.47;5070500;28;20461;-61
2022/04/10 07:23:41;;;;;;;6.35;4.45;;;;;;;5.81;59.23;95593.53;5070029;28;20104;-62
2022/04/10 07:24:08;;;;;;;8.18;4.53;;;;;;;6.18;57.85;95646.13;5070402;28;20588;-62
2022/04/10 07:26:33;;;;;;;6.18;4.50;;;;;;;5.34;60.37;95594.47;5052664;28;20029;-62
2022/04/10 07:28:59;;;;;;;5.82;5.18;;;;;;;5.74;59.80;95636.81;5070327;28;20462;-61
2022/04/10 07:31:24;;;;;;;6.40;5.05;;;;;;;5.94;58.86;95624.72;5070467;28;20031;-61
2022/04/10 07:33:49;;;;;;;5.20;4.75;;;;;;;6.48;56.52;95648.00;5070503;28;20051;-62
2022/04/10 07:36:15;;;;;;;5.75;5.25;;;;;;;6.40;57.05;95588.56;5070654;28;20029;-62
2022/04/10 07:38:40;;;;;;;5.53;5.03;;;;;;;6.25;56.15;95592.00;5072945;28;20033;-62
2022/04/10 07:41:06;;;;;;;5.15;4.65;;;;;;;7.17;55.04;95630.69;5055619;28;20028;-63
2022/04/10 07:43:31;;;;;;;4.22;3.67;;;;;;;6.53;55.68;95655.13;5074217;28;20074;-61
2022/04/10 07:48:42;;;;;;;5.20;4.70;;;;;;;6.48;55.15;95648.78;5074197;28;20043;-62
2022/04/10 07:51:08;;;;;;;5.47;3.92;;;;;;;6.67;53.13;95670.19;5073850;28;20374;-61
2022/04/10 07:53:34;;;;;;;4.90;4.40;;;;;;;7.08;50.97;95651.59;5055830;28;20036;-61
2022/04/10 07:56:00;;;;;;;6.28;5.30;;;;;;;6.86;52.38;95664.34;5073999;28;20025;-63
2022/04/10 07:58:25;;;;;;;8.25;4.00;;;;;;;6.03;56.57;95662.75;5073750;28;20082;-63
2022/04/10 08:00:51;;;;;;;7.82;4.15;;;;;;;6.76;53.34;95628.16;5073521;28;20021;-66
2022/04/10 08:03:16;;;;;;;7.53;3.78;;;;;;;6.24;53.98;95682.06;5055555;28;20449;-66
2022/04/10 08:05:42;;;;;;;5.60;4.13;;;;;;;6.46;51.87;95676.53;5073749;28;20112;-65
2022/04/10 08:08:09;;;;;;;4.15;3.55;;;;;;;6.09;50.47;95542.06;5073840;28;20068;-66
2022/04/10 08:10:37;;;;;;;3.90;2.95;;;;;;;6.17;52.12;95624.22;5055494;28;20024;-66
2022/04/10 08:13:02;;;;;;;6.28;4.30;;;;;;;7.81;48.02;95667.72;5073670;28;20059;-64
2022/04/10 08:15:28;;;;;;;3.78;3.00;;;;;;;7.27;49.44;95662.41;5073307;28;20628;-63
2022/04/10 08:17:53;;;;;;;5.53;4.03;;;;;;;7.61;48.79;95625.47;5073328;28;20035;-66
2022/04/10 08:20:19;;;;;;;4.88;4.22;;;;;;;7.81;46.27;95558.34;5073151;28;20120;-68
2022/04/10 08:22:49;;;;;;;3.55;3.05;;;;;;;7.92;44.75;95673.75;5073507;28;20055;-66
2022/04/10 08:25:16;;;;;;;4.22;3.50;;;;;;;9.08;43.44;95679.25;5073512;28;20036;-66
2022/04/10 08:27:41;;;;;;;2.30;2.10;;;;;;;7.13;45.43;95701.06;5073366;28;20032;-66
2022/04/10 08:30:12;;;;;;;6.38;3.30;;;;;;;7.79;46.17;95627.50;5054813;28;20016;-68
2022/04/10 08:32:39;;;;;;;4.15;3.75;;;;;;;8.45;43.16;95588.38;5073396;28;20096;-65
2022/04/10 08:35:05;;;;;;;4.25;3.60;;;;;;;7.89;45.24;95658.44;5073417;28;20392;-66
2022/04/10 08:37:31;;;;;;;5.20;3.35;;;;;;;8.55;44.31;95681.88;5073076;28;20028;-64
2022/04/10 08:39:57;;;;;;;4.50;3.80;;;;;;;8.15;43.99;95627.25;5072936;28;20086;-66
2022/04/10 08:42:22;;;;;;;4.03;2.92;;;;;;;7.47;44.86;95717.09;5073020;28;20099;-66
2022/04/10 08:44:48;;;;;;;3.40;3.05;;;;;;;6.74;46.66;95619.69;5073191;28;20431;-66
2022/04/10 08:47:20;;;;;;;4.50;3.40;;;;;;;7.30;45.23;95654.69;5073102;28;20446;-65
2022/04/10 08:49:46;;;;;;;42.72;10.23;;;;;;;7.29;49.05;95707.91;5072592;28;20142;-63
2022/04/10 08:52:12;;;;;;;6.38;3.40;;;;;;;6.81;49.36;95653.75;5072438;28;20039;-63
2022/04/10 08:54:40;;;;;;;6.38;3.90;;;;;;;6.81;50.06;95675.72;5072613;28;20028;-64
2022/04/10 08:57:07;;;;;;;5.63;3.95;;;;;;;6.88;49.74;95701.91;5072910;28;20031;-67
2022/04/10 08:59:32;;;;;;;4.43;3.17;;;;;;;6.47;48.79;95622.63;5054744;28;20036;-63
2022/04/10 09:01:58;;;;;;;4.18;3.00;;;;;;;7.91;44.47;95674.81;5054617;28;20016;-69
2022/04/10 09:04:24;;;;;;;4.97;2.50;;;;;;;7.70;43.67;95692.66;5072825;28;20028;-64
2022/04/10 09:06:57;;;;;;;5.55;2.35;;;;;;;7.22;42.10;95670.38;5054632;28;20028;-64
2022/04/10 09:09:23;;;;;;;7.13;2.63;;;;;;;7.26;42.57;95674.81;5054864;28;20058;-65
2022/04/10 09:11:51;;;;;;;2.75;2.38;;;;;;;8.33;41.17;95665.53;5072169;28;20615;-66
2022/04/10 09:14:28;;;;;;;3.25;2.08;;;;;;;7.82;39.70;95692.34;5054632;28;20159;-67
2022/04/10 09:17:18;;;;;;;3.03;2.30;;;;;;;8.41;39.48;95694.16;5072715;28;20508;-66
2022/04/10 09:19:51;;;;;;;2.10;1.88;;;;;;;7.59;40.19;95671.81;5072225;28;20661;-65
2022/04/10 09:22:27;;;;;;;3.78;2.67;;;;;;;7.99;39.75;95697.31;5071960;28;20170;-65
2022/04/10 09:25:16;;;;;;;5.05;2.45;;;;;;;8.68;38.62;95698.97;5072195;28;20027;-65
2022/04/10 09:27:48;;;;;;;3.50;2.30;;;;;;;9.25;37.82;95686.78;5071708;28;20017;-66
2022/04/10 09:30:18;;;;;;;4.03;2.10;;;;;;;7.86;37.27;95613.16;5072288;28;20556;-67
2022/04/10 09:32:45;;;;;;;2.30;1.67;;;;;;;6.47;38.72;95472.78;5072140;28;20075;-66
2022/04/10 09:35:16;;;;;;;3.53;2.15;;;;;;;7.59;39.23;95699.06;5072041;28;20024;-62
2022/04/10 09:37:59;;;;;;;2.28;1.98;;;;;;;8.45;37.57;95678.50;5071851;28;20024;-66
2022/04/10 09:40:35;;;;;;;3.55;2.08;;;;;;;7.49;37.45;95527.06;5071350;28;20029;-61
2022/04/10 09:43:06;;;;;;;3.40;1.65;;;;;;;7.33;36.40;95425.03;5071915;28;20099;-61
2022/04/10 09:45:39;;;;;;;4.28;1.77;;;;;;;8.39;38.12;95695.47;5071926;28;20025;-61
2022/04/10 09:48:27;;;;;;;3.92;2.40;;;;;;;7.82;39.39;95603.09;5053661;28;20024;-61
2022/04/10 09:50:57;;;;;;;2.63;1.70;;;;;;;8.24;37.97;95697.16;5071413;28;20020;-61
2022/04/10 09:53:23;;;;;;;2.92;2.00;;;;;;;10.08;35.65;95693.50;5071882;28;20086;-61
2022/04/10 09:55:53;;;;;;;1.85;1.70;;;;;;;7.61;37.65;95572.50;5071620;28;20096;-62
2022/04/10 09:58:20;;;;;;;1.90;1.80;;;;;;;9.82;36.12;95613.31;5071328;28;20028;-63
2022/04/10 10:00:47;;;;;;;2.55;1.63;;;;;;;8.91;35.99;95665.66;5070536;28;20044;-61
2022/04/10 10:03:14;;;;;;;2.95;1.98;;;;;;;9.04;35.57;95624.38;5071791;28;20169;-63
2022/04/10 10:05:39;;;;;;;3.75;1.65;;;;;;;8.21;37.07;95586.41;5071782;28;20020;-64
2022/04/10 10:08:06;;;;;;;2.90;2.17;;;;;;;8.73;36.88;95677.72;5071524;28;20032;-62
2022/04/10 10:10:35;;;;;;;1.65;1.50;;;;;;;8.81;36.82;95658.56;5071089;28;20559;-61
2022/04/10 10:13:02;;;;;;;3.35;2.20;;;;;;;8.61;35.77;95518.19;5070830;28;20034;-61
2022/04/10 10:15:28;;;;;;;3.28;1.85;;;;;;;9.56;36.15;95675.81;5071506;28;20469;-61
2022/04/10 10:17:54;;;;;;;2.33;1.63;;;;;;;7.68;36.84;95522.72;5053447;28;20033;-60
2022/04/10 10:20:23;;;;;;;3.33;1.50;;;;;;;9.19;35.67;95665.88;5070970;28;20037;-61
2022/04/10 10:22:50;;;;;;;4.43;2.20;;;;;;;8.76;35.61;95504.78;5071431;28;20021;-62
2022/04/10 10:25:24;;;;;;;2.88;1.52;;;;;;;8.84;35.24;95650.03;5071494;28;20029;-61
2022/04/10 10:28:23;;;;;;;5.25;1.80;;;;;;;8.11;36.55;95573.22;5070559;28;20029;-62
2022/04/10 10:31:07;;;;;;;2.38;1.70;;;;;;;8.47;36.45;95641.88;5070792;28;20031;-62
2022/04/10 10:33:34;;;;;;;3.50;1.65;;;;;;;7.82;39.09;95650.75;5053363;28;20024;-62
2022/04/10 10:36:01;;;;;;;3.85;1.63;;;;;;;8.32;37.67;95627.66;5071375;28;20470;-65
2022/04/10 10:38:30;;;;;;;2.88;2.10;;;;;;;8.10;37.83;95610.59;5071051;28;20028;-62
2022/04/10 10:41:16;;;;;;;3.30;2.33;;;;;;;9.05;37.02;95663.09;5070892;28;20032;-63
2022/04/10 10:43:42;;;;;;;2.10;1.65;;;;;;;8.50;36.12;95591.75;5070361;28;20082;-62
2022/04/10 10:46:26;;;;;;;2.47;1.90;;;;;;;9.48;34.19;95666.63;5071057;28;20091;-62
2022/04/10 10:49:20;;;;;;;2.83;1.67;;;;;;;9.87;33.49;95655.75;5052816;28;20028;-62
2022/04/10 10:51:46;;;;;;;2.63;1.88;;;;;;;10.22;32.02;95643.06;5070816;28;20020;-65
2022/04/10 10:54:30;;;;;;;4.38;1.95;;;;;;;9.18;33.90;95580.16;5071058;28;20086;-62
2022/04/10 10:56:56;;;;;;;5.07;1.70;;;;;;;7.50;35.93;95465.91;5071088;28;20432;-62
2022/04/10 10:59:22;;;;;;;3.53;1.75;;;;;;;8.83;34.85;95517.69;5051849;28;20024;-63
2022/04/10 11:02:00;;;;;;;2.08;1.30;;;;;;;8.43;33.03;95495.06;5070537;28;20024;-62
2022/04/10 11:04:29;;;;;;;2.80;1.65;;;;;;;9.26;32.66;95531.75;5070918;28;20020;-62
2022/04/10 11:07:09;;;;;;;2.63;1.65;;;;;;;10.20;33.38;95636.47;5070810;28;20017;-62
2022/04/10 11:09:35;;;;;;;3.97;1.90;;;;;;;10.11;32.40;95530.00;5070750;28;20032;-62
2022/04/10 11:12:00;;;;;;;3.33;1.60;;;;;;;10.16;31.48;95508.63;5072109;28;20021;-62
2022/04/10 11:14:38;;;;;;;3.00;1.88;;;;;;;8.93;34.00;95546.75;5074078;28;20085;-62
2022/04/10 11:17:19;;;;;;;2.30;1.67;;;;;;;10.81;33.28;95676.22;5074817;28;20135;-61
2022/04/10 11:20:07;;;;;;;2.25;1.80;;;;;;;10.88;33.67;95671.28;5074807;28;20068;-63
2022/04/10 11:22:44;;;;;;;2.25;1.73;;;;;;;8.75;34.23;95582.78;5074616;28;20385;-64
2022/04/10 11:25:10;;;;;;;2.25;1.60;;;;;;;9.57;33.79;95669.44;5056931;28;20020;-64
2022/04/10 11:27:50;;;;;;;3.42;2.00;;;;;;;10.72;34.14;95699.25;5073823;28;20051;-64
2022/04/10 11:30:23;;;;;;;2.60;1.77;;;;;;;8.40;38.35;95659.97;5074656;28;20069;-63
2022/04/10 11:32:51;;;;;;;2.80;1.90;;;;;;;7.55;41.64;95629.19;5074524;28;20047;-63
2022/04/10 11:35:28;;;;;;;2.85;2.17;;;;;;;7.51;48.87;95721.59;5074375;28;20020;-64
2022/04/10 11:37:59;;;;;;;4.00;3.10;;;;;;;6.17;50.41;95529.13;5074301;28;20033;-63
2022/04/10 11:40:32;;;;;;;3.75;2.45;;;;;;;6.17;54.36;95678.88;5073963;28;20060;-63
2022/04/10 11:42:59;;;;;;;3.60;2.90;;;;;;;6.50;54.51;95680.25;5073444;28;20116;-64
2022/04/10 11:45:27;;;;;;;3.03;2.80;;;;;;;7.16;51.78;95629.88;5074377;28;20024;-62